sensor_id;sensor_type;location;lat;lon;timestamp;pressure;altitude;pressure_sealevel;temperature;humidity
7170;BME280;3626;42.656;23.312;2022-09-09T00:00:06;94791.31;;;16.21;100.00
7170;BME280;3626;42.656;23.312;2022-09-09T00:00:13;94791.50;;;16.20;100.00
7170;BME280;3626;42.656;23.312;2022-09-09T00:00:22;94792.31;;;16.20;100.00
7170;BME280;3626;42.656;23.312;2022-09-09T00:00:32;94787.09;;;16.20;100.00
7170;BME280;3626;42.656;23.312;2022-09-09T00:00:46;94789.72;;;16.20;100.00
7170;BME280;3626;42.656;23.312;2022-09-09T00:00:56;94791.50;;;16.20;100.00
7170;BME280;3626;42.656;23.312;2022-09-09T00:01:08;94783.91;;;16.18;100.00
7170;BME280;3626;42.656;23.312;2022-09-09T00:01:28;94788.91;;;16.20;100.00
7170;BME280;3626;42.656;23.312;2022-09-09T00:01:46;94789.13;;;16.18;100.00
7170;BME280;3626;42.656;23.312;2022-09-09T00:01:59;94784.72;;;16.19;100.00
7170;BME280;3626;42.656;23.312;2022-09-09T00:02:14;94783.09;;;16.18;100.00
7170;BME280;3626;42.656;23.312;2022-09-09T00:02:27;94785.69;;;16.18;100.00
7170;BME280;3626;42.656;23.312;2022-09-09T00:02:34;94786.69;;;16.17;100.00
7170;BME280;3626;42.656;23.312;2022-09-09T00:02:43;94781.47;;;16.17;100.00
7170;BME280;3626;42.656;23.312;2022-09-09T00:02:57;94788.28;;;16.18;100.00
7170;BME280;3626;42.656;23.312;2022-09-09T00:03:12;94778.88;;;16.17;100.00
7170;BME280;3626;42.656;23.312;2022-09-09T00:03:25;94779.88;;;16.16;100.00
7170;BME280;3626;42.656;23.312;2022-09-09T00:03:35;94785.09;;;16.16;100.00
7170;BME280;3626;42.656;23.312;2022-09-09T00:03:54;94779.09;;;16.15;100.00
7170;BME280;3626;42.656;23.312;2022-09-09T00:04:05;94774.88;;;16.14;100.00
7170;BME280;3626;42.656;23.312;2022-09-09T00:04:24;94783.50;;;16.15;100.00
7170;BME280;3626;42.656;23.312;2022-09-09T00:04:32;94780.91;;;16.15;100.00
7170;BME280;3626;42.656;23.312;2022-09-09T00:04:39;94783.50;;;16.15;100.00
7170;BME280;3626;42.656;23.312;2022-09-09T00:04:55;94777.50;;;16.14;100.00
7170;BME280;3626;42.656;23.312;2022-09-09T00:05:19;94786.28;;;16.13;100.00
7170;BME280;3626;42.656;23.312;2022-09-09T00:05:38;94777.66;;;16.13;100.00
7170;BME280;3626;42.656;23.312;2022-09-09T00:05:52;94776.06;;;16.12;100.00
7170;BME280;3626;42.656;23.312;2022-09-09T00:06:06;94775.28;;;16.11;100.00
7170;BME280;3626;42.656;23.312;2022-09-09T00:06:21;94781.47;;;16.10;100.00
7170;BME280;3626;42.656;23.312;2022-09-09T00:06:31;94780.66;;;16.10;100.00
7170;BME280;3626;42.656;23.312;2022-09-09T00:06:45;94785.84;;;16.10;100.00
7170;BME280;3626;42.656;23.312;2022-09-09T00:06:59;94777.25;;;16.09;100.00
7170;BME280;3626;42.656;23.312;2022-09-09T00:07:14;94786.06;;;16.08;100.00
7170;BME280;3626;42.656;23.312;2022-09-09T00:07:24;94781.88;;;16.07;100.00
7170;BME280;3626;42.656;23.312;2022-09-09T00:07:40;94788.88;;;16.07;100.00
7170;BME280;3626;42.656;23.312;2022-09-09T00:07:51;94776.88;;;16.06;100.00
7170;BME280;3626;42.656;23.312;2022-09-09T00:07:59;94785.47;;;16.06;100.00
7170;BME280;3626;42.656;23.312;2022-09-09T00:08:15;94789.88;;;16.06;100.00
7170;BME280;3626;42.656;23.312;2022-09-09T00:08:30;94783.66;;;16.07;100.00
7170;BME280;3626;42.656;23.312;2022-09-09T00:08:46;94782.06;;;16.06;100.00
7170;BME280;3626;42.656;23.312;2022-09-09T00:09:01;94784.69;;;16.06;100.00
7170;BME280;3626;42.656;23.312;2022-09-09T00:09:12;94783.84;;;16.05;100.00
7170;BME280;3626;42.656;23.312;2022-09-09T00:09:22;94780.28;;;16.06;100.00
7170;BME280;3626;42.656;23.312;2022-09-09T00:09:38;94779.47;;;16.06;100.00
7170;BME280;3626;42.656;23.312;2022-09-09T00:09:46;94782.88;;;16.06;100.00
7170;BME280;3626;42.656;23.312;2022-09-09T00:10:05;94778.63;;;16.05;100.00
7170;BME280;3626;42.656;23.312;2022-09-09T00:10:25;94780.66;;;16.03;100.00
7170;BME280;3626;42.656;23.312;2022-09-09T00:10:37;94788.47;;;16.03;100.00
7170;BME280;3626;42.656;23.312;2022-09-09T00:10:45;94785.84;;;16.03;100.00
7170;BME280;3626;42.656;23.312;2022-09-09T00:10:59;94789.47;;;16.02;100.00
7170;BME280;3626;42.656;23.312;2022-09-09T00:11:09;94786.06;;;16.02;100.00
7170;BME280;3626;42.656;23.312;2022-09-09T00:11:24;94788.66;;;16.02;100.00
7170;BME280;3626;42.656;23.312;2022-09-09T00:11:40;94788.66;;;16.02;100.00
7170;BME280;3626;42.656;23.312;2022-09-09T00:11:52;94782.63;;;16.01;100.00
7170;BME280;3626;42.656;23.312;2022-09-09T00:12:06;94788.66;;;16.02;100.00
7170;BME280;3626;42.656;23.312;2022-09-09T00:12:19;94786.06;;;16.02;100.00
7170;BME280;3626;42.656;23.312;2022-09-09T00:12:38;94793.03;;;16.01;100.00
7170;BME280;3626;42.656;23.312;2022-09-09T00:12:53;94781.84;;;16.00;100.00
7170;BME280;3626;42.656;23.312;2022-09-09T00:13:06;94783.63;;;16.00;100.00
7170;BME280;3626;42.656;23.312;2022-09-09T00:13:25;94783.84;;;15.98;100.00
7170;BME280;3626;42.656;23.312;2022-09-09T00:13:39;94787.25;;;15.99;100.00
7170;BME280;3626;42.656;23.312;2022-09-09T00:13:52;94783.84;;;15.98;100.00
7170;BME280;3626;42.656;23.312;2022-09-09T00:14:03;94783.03;;;15.98;100.00
7170;BME280;3626;42.656;23.312;2022-09-09T00:14:22;94784.03;;;15.97;100.00
7170;BME280;3626;42.656;23.312;2022-09-09T00:14:35;94788.44;;;15.96;100.00
7170;BME280;3626;42.656;23.312;2022-09-09T00:14:48;94781.63;;;15.95;100.00
7170;BME280;3626;42.656;23.312;2022-09-09T00:15:01;94786.03;;;15.95;100.00
7170;BME280;3626;42.656;23.312;2022-09-09T00:15:13;94785.22;;;15.94;100.00
7170;BME280;3626;42.656;23.312;2022-09-09T00:15:20;94781.03;;;15.93;100.00
7170;BME280;3626;42.656;23.312;2022-09-09T00:15:32;94777.41;;;15.94;100.00
7170;BME280;3626;42.656;23.312;2022-09-09T00:15:50;94786.22;;;15.93;100.00
7170;BME280;3626;42.656;23.312;2022-09-09T00:16:01;94782.84;;;15.93;100.00
7170;BME280;3626;42.656;23.312;2022-09-09T00:16:12;94784.59;;;15.92;100.00
7170;BME280;3626;42.656;23.312;2022-09-09T00:16:24;94783.63;;;15.93;100.00
7170;BME280;3626;42.656;23.312;2022-09-09T00:16:35;94780.22;;;15.93;100.00
7170;BME280;3626;42.656;23.312;2022-09-09T00:16:49;94788.22;;;15.91;100.00
7170;BME280;3626;42.656;23.312;2022-09-09T00:17:01;94785.59;;;15.91;100.00
7170;BME280;3626;42.656;23.312;2022-09-09T00:17:11;94787.41;;;15.91;100.00
7170;BME280;3626;42.656;23.312;2022-09-09T00:17:34;94793.00;;;15.81;100.00
7170;BME280;3626;42.656;23.312;2022-09-09T00:17:46;94791.38;;;15.80;100.00
7170;BME280;3626;42.656;23.312;2022-09-09T00:18:00;94783.59;;;15.80;100.00
7170;BME280;3626;42.656;23.312;2022-09-09T00:18:16;94792.19;;;15.81;100.00
7170;BME280;3626;42.656;23.312;2022-09-09T00:18:24;94790.56;;;15.80;100.00
7170;BME280;3626;42.656;23.312;2022-09-09T00:18:44;94794.00;;;15.80;100.00
7170;BME280;3626;42.656;23.312;2022-09-09T00:18:57;94796.41;;;15.82;100.00
7170;BME280;3626;42.656;23.312;2022-09-09T00:19:14;94794.78;;;15.81;100.00
7170;BME280;3626;42.656;23.312;2022-09-09T00:19:26;94790.38;;;15.81;100.00
7170;BME280;3626;42.656;23.312;2022-09-09T00:19:41;94787.78;;;15.81;100.00
7170;BME280;3626;42.656;23.312;2022-09-09T00:19:56;94787.00;;;15.81;100.00
7170;BME280;3626;42.656;23.312;2022-09-09T00:20:12;94786.19;;;15.80;100.00
7170;BME280;3626;42.656;23.312;2022-09-09T00:20:26;94785.19;;;15.81;100.00
7170;BME280;3626;42.656;23.312;2022-09-09T00:20:40;94790.56;;;15.80;100.00
7170;BME280;3626;42.656;23.312;2022-09-09T00:20:52;94789.75;;;15.79;100.00
7170;BME280;3626;42.656;23.312;2022-09-09T00:21:06;94787.00;;;15.81;100.00
7170;BME280;3626;42.656;23.312;2022-09-09T00:21:14;94786.19;;;15.80;100.00
7170;BME280;3626;42.656;23.312;2022-09-09T00:21:25;94786.19;;;15.80;100.00
7170;BME280;3626;42.656;23.312;2022-09-09T00:21:35;94779.34;;;15.79;100.00
7170;BME280;3626;42.656;23.312;2022-09-09T00:21:47;94777.56;;;15.80;100.00
7170;BME280;3626;42.656;23.312;2022-09-09T00:22:05;94780.34;;;15.78;100.00
7170;BME280;3626;42.656;23.312;2022-09-09T00:22:16;94777.75;;;15.78;100.00
7170;BME280;3626;42.656;23.312;2022-09-09T00:22:23;94778.13;;;15.75;100.00
7170;BME280;3626;42.656;23.312;2022-09-09T00:22:32;94774.94;;;15.73;100.00
7170;BME280;3626;42.656;23.312;2022-09-09T00:22:40;94775.94;;;15.72;100.00
7170;BME280;3626;42.656;23.312;2022-09-09T00:22:54;94776.91;;;15.71;100.00
7170;BME280;3626;42.656;23.312;2022-09-09T00:23:11;94776.91;;;15.71;100.00
7170;BME280;3626;42.656;23.312;2022-09-09T00:23:23;94776.91;;;15.71;100.00
7170;BME280;3626;42.656;23.312;2022-09-09T00:23:32;94776.13;;;15.70;100.00
7170;BME280;3626;42.656;23.312;2022-09-09T00:23:39;94774.31;;;15.71;100.00
7170;BME280;3626;42.656;23.312;2022-09-09T00:23:49;94774.31;;;15.71;100.00
7170;BME280;3626;42.656;23.312;2022-09-09T00:23:57;94773.34;;;15.72;100.00
7170;BME280;3626;42.656;23.312;2022-09-09T00:24:10;94776.91;;;15.71;100.00
7170;BME280;3626;42.656;23.312;2022-09-09T00:24:24;94770.75;;;15.72;100.00
7170;BME280;3626;42.656;23.312;2022-09-09T00:24:37;94771.91;;;15.69;100.00
7170;BME280;3626;42.656;23.312;2022-09-09T00:24:45;94772.72;;;15.70;100.00
7170;BME280;3626;42.656;23.312;2022-09-09T00:24:52;94770.13;;;15.70;100.00
7170;BME280;3626;42.656;23.312;2022-09-09T00:25:08;94770.91;;;15.70;100.00
7170;BME280;3626;42.656;23.312;2022-09-09T00:25:20;94764.91;;;15.70;100.00
7170;BME280;3626;42.656;23.312;2022-09-09T00:25:33;94770.91;;;15.70;100.00
7170;BME280;3626;42.656;23.312;2022-09-09T00:25:48;94763.91;;;15.71;100.00
7170;BME280;3626;42.656;23.312;2022-09-09T00:26:02;94766.50;;;15.71;100.00
7170;BME280;3626;42.656;23.312;2022-09-09T00:26:14;94771.72;;;15.71;100.00
7170;BME280;3626;42.656;23.312;2022-09-09T00:26:31;94759.50;;;15.71;100.00
7170;BME280;3626;42.656;23.312;2022-09-09T00:26:39;94759.72;;;15.70;100.00
7170;BME280;3626;42.656;23.312;2022-09-09T00:26:52;94764.13;;;15.69;100.00
7170;BME280;3626;42.656;23.312;2022-09-09T00:27:04;94765.91;;;15.69;100.00
7170;BME280;3626;42.656;23.312;2022-09-09T00:27:17;94767.72;;;15.68;100.00
7170;BME280;3626;42.656;23.312;2022-09-09T00:27:28;94766.13;;;15.67;100.00
7170;BME280;3626;42.656;23.312;2022-09-09T00:27:41;94762.50;;;15.68;100.00
7170;BME280;3626;42.656;23.312;2022-09-09T00:27:50;94764.31;;;15.68;100.00
7170;BME280;3626;42.656;23.312;2022-09-09T00:27:56;94762.50;;;15.68;100.00
7170;BME280;3626;42.656;23.312;2022-09-09T00:28:02;94766.91;;;15.68;100.00
7170;BME280;3626;42.656;23.312;2022-09-09T00:28:13;94767.72;;;15.68;100.00
7170;BME280;3626;42.656;23.312;2022-09-09T00:28:25;94761.72;;;15.68;100.00
7170;BME280;3626;42.656;23.312;2022-09-09T00:28:39;94765.28;;;15.67;100.00
7170;BME280;3626;42.656;23.312;2022-09-09T00:28:51;94758.50;;;15.66;100.00
7170;BME280;3626;42.656;23.312;2022-09-09T00:29:02;94765.28;;;15.67;100.00
7170;BME280;3626;42.656;23.312;2022-09-09T00:29:20;94766.91;;;15.68;100.00
7170;BME280;3626;42.656;23.312;2022-09-09T00:29:34;94759.28;;;15.66;100.00
7170;BME280;3626;42.656;23.312;2022-09-09T00:29:45;94763.53;;;15.67;100.00
7170;BME280;3626;42.656;23.312;2022-09-09T00:29:55;94759.91;;;15.68;100.00
7170;BME280;3626;42.656;23.312;2022-09-09T00:30:14;94756.50;;;15.68;100.00
7170;BME280;3626;42.656;23.312;2022-09-09T00:30:23;94764.31;;;15.68;100.00
7170;BME280;3626;42.656;23.312;2022-09-09T00:30:32;94756.50;;;15.68;100.00
7170;BME280;3626;42.656;23.312;2022-09-09T00:30:40;94759.13;;;15.68;100.00
7170;BME280;3626;42.656;23.312;2022-09-09T00:30:47;94756.50;;;15.68;100.00
7170;BME280;3626;42.656;23.312;2022-09-09T00:30:53;94760.91;;;15.67;100.00
7170;BME280;3626;42.656;23.312;2022-09-09T00:31:11;94757.88;;;15.64;100.00
7170;BME280;3626;42.656;23.312;2022-09-09T00:31:23;94758.03;;;15.62;100.00
7170;BME280;3626;42.656;23.312;2022-09-09T00:31:31;94757.44;;;15.60;100.00
7170;BME280;3626;42.656;23.312;2022-09-09T00:31:37;94760.84;;;15.61;100.00
7170;BME280;3626;42.656;23.312;2022-09-09T00:31:43;94759.03;;;15.61;100.00
7170;BME280;3626;42.656;23.312;2022-09-09T00:31:49;94759.03;;;15.61;100.00
7170;BME280;3626;42.656;23.312;2022-09-09T00:32:00;94760.84;;;15.61;100.00
7170;BME280;3626;42.656;23.312;2022-09-09T00:32:13;94760.03;;;15.60;100.00
7170;BME280;3626;42.656;23.312;2022-09-09T00:32:20;94755.63;;;15.61;100.00
7170;BME280;3626;42.656;23.312;2022-09-09T00:32:29;94762.44;;;15.62;100.00
7170;BME280;3626;42.656;23.312;2022-09-09T00:32:35;94759.25;;;15.60;100.00
7170;BME280;3626;42.656;23.312;2022-09-09T00:32:41;94760.84;;;15.61;100.00
7170;BME280;3626;42.656;23.312;2022-09-09T00:32:48;94754.84;;;15.60;100.00
7170;BME280;3626;42.656;23.312;2022-09-09T00:32:58;94760.84;;;15.61;100.00
7170;BME280;3626;42.656;23.312;2022-09-09T00:33:10;94759.03;;;15.61;100.00
7170;BME280;3626;42.656;23.312;2022-09-09T00:33:20;94757.25;;;15.62;100.00
7170;BME280;3626;42.656;23.312;2022-09-09T00:33:28;94759.03;;;15.61;100.00
7170;BME280;3626;42.656;23.312;2022-09-09T00:33:36;94752.03;;;15.62;100.00
7170;BME280;3626;42.656;23.312;2022-09-09T00:33:46;94755.63;;;15.61;100.00
7170;BME280;3626;42.656;23.312;2022-09-09T00:33:53;94756.44;;;15.61;100.00
7170;BME280;3626;42.656;23.312;2022-09-09T00:34:05;94757.25;;;15.62;100.00
7170;BME280;3626;42.656;23.312;2022-09-09T00:34:18;94764.03;;;15.63;100.00
7170;BME280;3626;42.656;23.312;2022-09-09T00:34:25;94758.84;;;15.63;100.00
7170;BME280;3626;42.656;23.312;2022-09-09T00:34:33;94757.25;;;15.62;100.00
7170;BME280;3626;42.656;23.312;2022-09-09T00:34:48;94753.63;;;15.63;100.00
7170;BME280;3626;42.656;23.312;2022-09-09T00:34:56;94751.22;;;15.61;100.00
7170;BME280;3626;42.656;23.312;2022-09-09T00:35:16;94757.25;;;15.62;100.00
7170;BME280;3626;42.656;23.312;2022-09-09T00:35:25;94758.03;;;15.62;100.00
7170;BME280;3626;42.656;23.312;2022-09-09T00:35:36;94752.84;;;15.62;100.00
7170;BME280;3626;42.656;23.312;2022-09-09T00:35:45;94749.44;;;15.62;100.00
7170;BME280;3626;42.656;23.312;2022-09-09T00:35:55;94757.25;;;15.62;100.00
7170;BME280;3626;42.656;23.312;2022-09-09T00:36:02;94748.44;;;15.63;100.00
7170;BME280;3626;42.656;23.312;2022-09-09T00:36:12;94755.44;;;15.62;100.00
7170;BME280;3626;42.656;23.312;2022-09-09T00:36:22;94750.44;;;15.61;100.00
7170;BME280;3626;42.656;23.312;2022-09-09T00:36:32;94754.63;;;15.62;100.00
7170;BME280;3626;42.656;23.312;2022-09-09T00:36:39;94752.03;;;15.62;100.00
7170;BME280;3626;42.656;23.312;2022-09-09T00:36:48;94749.44;;;15.62;100.00
7170;BME280;3626;42.656;23.312;2022-09-09T00:36:56;94751.03;;;15.63;100.00
7170;BME280;3626;42.656;23.312;2022-09-09T00:37:02;94746.84;;;15.62;100.00
7170;BME280;3626;42.656;23.312;2022-09-09T00:37:08;94746.84;;;15.62;100.00
7170;BME280;3626;42.656;23.312;2022-09-09T00:37:15;94748.63;;;15.61;100.00
7170;BME280;3626;42.656;23.312;2022-09-09T00:37:22;94745.25;;;15.61;100.00
7170;BME280;3626;42.656;23.312;2022-09-09T00:37:31;94750.44;;;15.61;100.00
7170;BME280;3626;42.656;23.312;2022-09-09T00:37:37;94744.63;;;15.59;100.00
7170;BME280;3626;42.656;23.312;2022-09-09T00:37:47;94748.41;;;15.56;100.00
7170;BME280;3626;42.656;23.312;2022-09-09T00:37:56;94743.81;;;15.58;100.00
7170;BME280;3626;42.656;23.312;2022-09-09T00:38:10;94743.00;;;15.58;100.00
7170;BME280;3626;42.656;23.312;2022-09-09T00:38:22;94743.81;;;15.58;100.00
7170;BME280;3626;42.656;23.312;2022-09-09T00:38:33;94751.03;;;15.56;100.00
7170;BME280;3626;42.656;23.312;2022-09-09T00:38:42;94751.81;;;15.57;100.00
7170;BME280;3626;42.656;23.312;2022-09-09T00:38:53;94744.81;;;15.57;100.00
7170;BME280;3626;42.656;23.312;2022-09-09T00:39:02;94747.22;;;15.59;100.00
7170;BME280;3626;42.656;23.312;2022-09-09T00:39:12;94744.63;;;15.59;100.00
7170;BME280;3626;42.656;23.312;2022-09-09T00:39:27;94749.63;;;15.60;100.00
7170;BME280;3626;42.656;23.312;2022-09-09T00:39:39;94747.84;;;15.61;100.00
7170;BME280;3626;42.656;23.312;2022-09-09T00:39:49;94746.84;;;15.62;100.00
7170;BME280;3626;42.656;23.312;2022-09-09T00:40:00;94744.22;;;15.62;100.00
7170;BME280;3626;42.656;23.312;2022-09-09T00:40:18;94741.63;;;15.62;100.00
7170;BME280;3626;42.656;23.312;2022-09-09T00:40:32;94742.63;;;15.61;100.00
7170;BME280;3626;42.656;23.312;2022-09-09T00:40:44;94742.44;;;15.62;100.00
7170;BME280;3626;42.656;23.312;2022-09-09T00:40:53;94745.81;;;15.63;100.00
7170;BME280;3626;42.656;23.312;2022-09-09T00:41:07;94745.69;;;15.64;100.00
7170;BME280;3626;42.656;23.312;2022-09-09T00:41:21;94739.66;;;15.64;100.00
7170;BME280;3626;42.656;23.312;2022-09-09T00:41:38;94745.69;;;15.64;100.00
7170;BME280;3626;42.656;23.312;2022-09-09T00:41:55;94746.47;;;15.65;100.00
7170;BME280;3626;42.656;23.312;2022-09-09T00:42:13;94739.66;;;15.64;100.00
7170;BME280;3626;42.656;23.312;2022-09-09T00:42:24;94737.06;;;15.64;100.00
7170;BME280;3626;42.656;23.312;2022-09-09T00:42:37;94741.28;;;15.65;100.00
7170;BME280;3626;42.656;23.312;2022-09-09T00:42:54;94745.69;;;15.64;100.00
7170;BME280;3626;42.656;23.312;2022-09-09T00:43:21;94737.22;;;15.62;100.00
7170;BME280;3626;42.656;23.312;2022-09-09T00:43:32;94733.81;;;15.62;100.00
7170;BME280;3626;42.656;23.312;2022-09-09T00:43:41;94738.44;;;15.60;100.00
7170;BME280;3626;42.656;23.312;2022-09-09T00:43:53;94741.03;;;15.60;100.00
7170;BME280;3626;42.656;23.312;2022-09-09T00:44:09;94742.63;;;15.61;100.00
7170;BME280;3626;42.656;23.312;2022-09-09T00:44:30;94734.63;;;15.62;100.00
7170;BME280;3626;42.656;23.312;2022-09-09T00:44:52;94740.63;;;15.63;100.00
7170;BME280;3626;42.656;23.312;2022-09-09T00:45:08;94741.63;;;15.62;100.00
7170;BME280;3626;42.656;23.312;2022-09-09T00:45:37;94741.63;;;15.62;100.00
7170;BME280;3626;42.656;23.312;2022-09-09T00:46:12;94747.03;;;15.60;100.00
7170;BME280;3626;42.656;23.312;2022-09-09T00:47:01;94741.22;;;15.58;100.00
7170;BME280;3626;42.656;23.312;2022-09-09T00:47:19;94740.03;;;15.61;100.00
7170;BME280;3626;42.656;23.312;2022-09-09T00:47:44;94737.22;;;15.62;100.00
7170;BME280;3626;42.656;23.312;2022-09-09T00:47:52;94738.03;;;15.63;100.00
7170;BME280;3626;42.656;23.312;2022-09-09T00:48:00;94744.84;;;15.64;100.00
7170;BME280;3626;42.656;23.312;2022-09-09T00:48:11;94741.28;;;15.65;100.00
7170;BME280;3626;42.656;23.312;2022-09-09T00:48:18;94738.69;;;15.65;100.00
7170;BME280;3626;42.656;23.312;2022-09-09T00:48:33;94741.06;;;15.66;100.00
7170;BME280;3626;42.656;23.312;2022-09-09T00:48:47;94746.09;;;15.68;100.00
7170;BME280;3626;42.656;23.312;2022-09-09T00:49:04;94734.06;;;15.67;100.00
7170;BME280;3626;42.656;23.312;2022-09-09T00:49:17;94744.31;;;15.68;100.00
7170;BME280;3626;42.656;23.312;2022-09-09T00:49:35;94739.91;;;15.69;100.00
7170;BME280;3626;42.656;23.312;2022-09-09T00:49:50;94745.91;;;15.69;100.00
7170;BME280;3626;42.656;23.312;2022-09-09T00:50:08;94743.09;;;15.71;100.00
7170;BME280;3626;42.656;23.312;2022-09-09T00:50:29;94741.28;;;15.71;100.00
7170;BME280;3626;42.656;23.312;2022-09-09T00:50:45;94749.94;;;15.72;100.00
7170;BME280;3626;42.656;23.312;2022-09-09T00:51:00;94742.91;;;15.72;100.00
7170;BME280;3626;42.656;23.312;2022-09-09T00:51:15;94744.72;;;15.72;100.00
7170;BME280;3626;42.656;23.312;2022-09-09T00:51:30;94742.13;;;15.72;100.00
7170;BME280;3626;42.656;23.312;2022-09-09T00:51:46;94744.72;;;15.72;100.00
7170;BME280;3626;42.656;23.312;2022-09-09T00:52:07;94742.13;;;15.72;100.00
7170;BME280;3626;42.656;23.312;2022-09-09T00:52:26;94742.91;;;15.72;100.00
7170;BME280;3626;42.656;23.312;2022-09-09T00:52:39;94745.53;;;15.72;100.00
7170;BME280;3626;42.656;23.312;2022-09-09T00:52:55;94743.72;;;15.73;100.00
7170;BME280;3626;42.656;23.312;2022-09-09T00:53:19;94744.72;;;15.72;100.00
7170;BME280;3626;42.656;23.312;2022-09-09T00:53:37;94745.53;;;15.72;100.00
7170;BME280;3626;42.656;23.312;2022-09-09T00:54:06;94747.31;;;15.72;100.00
7170;BME280;3626;42.656;23.312;2022-09-09T00:54:28;94738.50;;;15.73;100.00
7170;BME280;3626;42.656;23.312;2022-09-09T00:54:45;94742.91;;;15.72;100.00
7170;BME280;3626;42.656;23.312;2022-09-09T00:55:00;94738.50;;;15.73;100.00
7170;BME280;3626;42.656;23.312;2022-09-09T00:55:14;94742.13;;;15.72;100.00
7170;BME280;3626;42.656;23.312;2022-09-09T00:55:30;94742.13;;;15.72;100.00
7170;BME280;3626;42.656;23.312;2022-09-09T00:55:43;94740.31;;;15.72;100.00
7170;BME280;3626;42.656;23.312;2022-09-09T00:55:54;94742.91;;;15.72;100.00
7170;BME280;3626;42.656;23.312;2022-09-09T00:56:12;94746.31;;;15.73;100.00
7170;BME280;3626;42.656;23.312;2022-09-09T00:56:21;94744.31;;;15.75;100.00
7170;BME280;3626;42.656;23.312;2022-09-09T00:56:36;94748.91;;;15.73;100.00
7170;BME280;3626;42.656;23.312;2022-09-09T00:56:56;94744.72;;;15.72;100.00
7170;BME280;3626;42.656;23.312;2022-09-09T00:57:23;94742.13;;;15.72;100.00
7170;BME280;3626;42.656;23.312;2022-09-09T00:57:34;94747.31;;;15.72;100.00
7170;BME280;3626;42.656;23.312;2022-09-09T00:57:41;94747.31;;;15.72;100.00
7170;BME280;3626;42.656;23.312;2022-09-09T00:57:48;94749.94;;;15.72;100.00
7170;BME280;3626;42.656;23.312;2022-09-09T00:57:57;94742.13;;;15.72;100.00
7170;BME280;3626;42.656;23.312;2022-09-09T00:58:06;94742.13;;;15.72;100.00
7170;BME280;3626;42.656;23.312;2022-09-09T00:58:13;94749.94;;;15.72;100.00
7170;BME280;3626;42.656;23.312;2022-09-09T00:58:19;94746.50;;;15.71;100.00
7170;BME280;3626;42.656;23.312;2022-09-09T00:58:25;94743.09;;;15.71;100.00
7170;BME280;3626;42.656;23.312;2022-09-09T00:58:32;94746.50;;;15.71;100.00
7170;BME280;3626;42.656;23.312;2022-09-09T00:58:38;94743.09;;;15.71;100.00
7170;BME280;3626;42.656;23.312;2022-09-09T00:58:56;94750.91;;;15.71;100.00
7170;BME280;3626;42.656;23.312;2022-09-09T00:59:14;94742.28;;;15.70;100.00
7170;BME280;3626;42.656;23.312;2022-09-09T00:59:31;94746.91;;;15.68;100.00
7170;BME280;3626;42.656;23.312;2022-09-09T00:59:47;94747.91;;;15.67;100.00
7170;BME280;3626;42.656;23.312;2022-09-09T00:59:58;94743.50;;;15.68;100.00
7170;BME280;3626;42.656;23.312;2022-09-09T01:00:21;94753.28;;;15.66;100.00
7170;BME280;3626;42.656;23.312;2022-09-09T01:00:29;94737.69;;;15.66;100.00
7170;BME280;3626;42.656;23.312;2022-09-09T01:00:41;94742.88;;;15.66;100.00
7170;BME280;3626;42.656;23.312;2022-09-09T01:00:51;94743.88;;;15.65;100.00
7170;BME280;3626;42.656;23.312;2022-09-09T01:01:04;94749.69;;;15.67;100.00
7170;BME280;3626;42.656;23.312;2022-09-09T01:01:13;94747.28;;;15.65;100.00
7170;BME280;3626;42.656;23.312;2022-09-09T01:01:19;94744.69;;;15.65;100.00
7170;BME280;3626;42.656;23.312;2022-09-09T01:01:24;94751.69;;;15.65;100.00
7170;BME280;3626;42.656;23.312;2022-09-09T01:01:30;94748.09;;;15.66;100.00
7170;BME280;3626;42.656;23.312;2022-09-09T01:01:36;94747.28;;;15.65;100.00
7170;BME280;3626;42.656;23.312;2022-09-09T01:01:44;94742.06;;;15.65;100.00
7170;BME280;3626;42.656;23.312;2022-09-09T01:01:51;94741.28;;;15.65;100.00
7170;BME280;3626;42.656;23.312;2022-09-09T01:01:57;94741.28;;;15.65;100.00
7170;BME280;3626;42.656;23.312;2022-09-09T01:02:13;94736.88;;;15.65;100.00
7170;BME280;3626;42.656;23.312;2022-09-09T01:02:27;94749.88;;;15.65;100.00
7170;BME280;3626;42.656;23.312;2022-09-09T01:02:39;94747.28;;;15.65;100.00
7170;BME280;3626;42.656;23.312;2022-09-09T01:02:56;94748.09;;;15.66;100.00
7170;BME280;3626;42.656;23.312;2022-09-09T01:03:18;94751.69;;;15.65;100.00
7170;BME280;3626;42.656;23.312;2022-09-09T01:03:34;94746.47;;;15.65;100.00
7170;BME280;3626;42.656;23.312;2022-09-09T01:03:45;94751.03;;;15.63;100.00
7170;BME280;3626;42.656;23.312;2022-09-09T01:03:54;94747.63;;;15.62;100.00
7170;BME280;3626;42.656;23.312;2022-09-09T01:04:00;94753.03;;;15.61;100.00
7170;BME280;3626;42.656;23.312;2022-09-09T01:04:13;94746.84;;;15.62;100.00
7170;BME280;3626;42.656;23.312;2022-09-09T01:04:27;94756.44;;;15.61;100.00
7170;BME280;3626;42.656;23.312;2022-09-09T01:04:36;94747.84;;;15.61;100.00
7170;BME280;3626;42.656;23.312;2022-09-09T01:04:42;94756.44;;;15.61;100.00
7170;BME280;3626;42.656;23.312;2022-09-09T01:04:48;94749.63;;;15.60;100.00
7170;BME280;3626;42.656;23.312;2022-09-09T01:04:54;94757.25;;;15.62;100.00
7170;BME280;3626;42.656;23.312;2022-09-09T01:05:10;94754.63;;;15.62;100.00
7170;BME280;3626;42.656;23.312;2022-09-09T01:05:22;94754.63;;;15.62;100.00
7170;BME280;3626;42.656;23.312;2022-09-09T01:05:35;94756.44;;;15.61;100.00
7170;BME280;3626;42.656;23.312;2022-09-09T01:05:46;94756.66;;;15.60;100.00
7170;BME280;3626;42.656;23.312;2022-09-09T01:06:01;94755.00;;;15.59;100.00
7170;BME280;3626;42.656;23.312;2022-09-09T01:06:15;94751.44;;;15.60;100.00
7170;BME280;3626;42.656;23.312;2022-09-09T01:06:26;94754.03;;;15.60;100.00
7170;BME280;3626;42.656;23.312;2022-09-09T01:06:36;94749.63;;;15.60;100.00
7170;BME280;3626;42.656;23.312;2022-09-09T01:06:45;94755.63;;;15.61;100.00
7170;BME280;3626;42.656;23.312;2022-09-09T01:07:03;94750.44;;;15.61;100.00
7170;BME280;3626;42.656;23.312;2022-09-09T01:07:16;94754.03;;;15.60;100.00